createdAt,value
2022-12-14T00:01:41.149Z,23.75
2022-12-14T00:04:07.915Z,21.90
2022-12-14T00:06:35.037Z,21.20
2022-12-14T00:09:04.003Z,21.88
2022-12-14T00:11:32.260Z,21.20
2022-12-14T00:14:01.493Z,21.58
2022-12-14T00:16:30.927Z,21.05
2022-12-14T00:18:59.699Z,22.13
2022-12-14T00:21:28.766Z,24.45
2022-12-14T00:23:57.514Z,22.13
2022-12-14T00:26:26.463Z,23.52
2022-12-14T00:28:54.954Z,22.42
2022-12-14T00:31:22.962Z,22.83
2022-12-14T00:33:51.683Z,23.38
2022-12-14T00:36:19.258Z,21.50
2022-12-14T00:38:46.394Z,23.40
2022-12-14T00:41:13.177Z,22.17
2022-12-14T00:43:39.966Z,21.75
2022-12-14T00:46:07.367Z,21.30
2022-12-14T00:48:34.442Z,21.65
2022-12-14T00:51:01.402Z,21.38
2022-12-14T00:53:28.144Z,22.30
2022-12-14T00:55:54.893Z,20.35
2022-12-14T00:58:23.748Z,19.80
2022-12-14T01:01:04.658Z,21.83
2022-12-14T01:03:32.007Z,21.15
2022-12-14T01:05:59.164Z,20.75
2022-12-14T01:08:26.203Z,20.77
2022-12-14T01:10:53.781Z,21.83
2022-12-14T01:13:20.467Z,22.88
2022-12-14T01:15:48.671Z,22.33
2022-12-14T01:18:15.552Z,21.35
2022-12-14T01:20:42.230Z,20.42
2022-12-14T01:23:09.551Z,20.73
2022-12-14T01:25:36.579Z,22.10
2022-12-14T01:28:03.321Z,20.42
2022-12-14T01:30:31.092Z,20.70
2022-12-14T01:32:57.779Z,21.70
2022-12-14T01:35:24.500Z,19.75
2022-12-14T01:37:53.196Z,21.48
2022-12-14T01:40:22.839Z,19.35
2022-12-14T01:42:49.461Z,21.13
2022-12-14T01:45:21.689Z,19.77
2022-12-14T01:47:54.628Z,19.25
2022-12-14T01:50:24.453Z,19.90
2022-12-14T01:52:55.773Z,20.50
2022-12-14T01:55:33.764Z,21.67
2022-12-14T01:58:07.192Z,19.13
2022-12-14T02:00:35.264Z,20.08
2022-12-14T02:03:20.042Z,20.23
2022-12-14T02:05:54.599Z,20.05
2022-12-14T02:08:23.415Z,19.30
2022-12-14T02:10:51.884Z,18.95
2022-12-14T02:13:29.601Z,19.58
2022-12-14T02:15:56.709Z,19.23
2022-12-14T02:18:43.538Z,19.48
2022-12-14T02:21:35.351Z,18.52
2022-12-14T02:24:08.358Z,20.15
2022-12-14T02:27:12.497Z,18.67
2022-12-14T02:32:32.410Z,18.90
2022-12-14T02:35:19.442Z,17.80
2022-12-14T02:38:06.231Z,18.65
2022-12-14T02:40:42.188Z,17.75
2022-12-14T02:43:38.460Z,16.50
2022-12-14T02:46:23.825Z,17.83
2022-12-14T02:49:14.083Z,17.48
2022-12-14T02:52:03.593Z,17.48
2022-12-14T02:55:03.774Z,17.38
2022-12-14T02:57:48.891Z,18.05
2022-12-14T03:00:16.289Z,16.98
2022-12-14T03:02:45.733Z,16.95
2022-12-14T03:05:12.792Z,17.45
2022-12-14T03:07:58.860Z,17.52
2022-12-14T03:10:34.526Z,16.73
2022-12-14T03:13:34.812Z,17.27
2022-12-14T03:16:13.514Z,17.98
2022-12-14T03:18:54.817Z,17.17
2022-12-14T03:21:28.703Z,17.08
2022-12-14T03:23:57.499Z,18.92
2022-12-14T03:26:38.388Z,18.15
2022-12-14T03:29:21.654Z,16.27
2022-12-14T03:31:56.670Z,16.67
2022-12-14T03:34:31.953Z,18.50
2022-12-14T03:37:17.462Z,17.08
2022-12-14T03:39:45.685Z,17.90
2022-12-14T03:42:20.913Z,17.63
2022-12-14T03:45:03.534Z,18.05
2022-12-14T03:47:45.317Z,17.00
2022-12-14T03:50:16.403Z,16.88
2022-12-14T03:53:06.597Z,18.02
2022-12-14T03:56:11.196Z,18.27
2022-12-14T03:58:41.011Z,18.60
2022-12-14T04:01:19.173Z,17.85
2022-12-14T04:04:07.056Z,17.63
2022-12-14T04:06:36.542Z,17.92
2022-12-14T04:09:35.167Z,20.27
2022-12-14T04:12:35.607Z,20.23
2022-12-14T04:15:30.296Z,18.90
2022-12-14T04:18:21.406Z,17.27
2022-12-14T04:21:10.779Z,19.08
2022-12-14T04:24:04.915Z,18.20
2022-12-14T04:26:40.581Z,19.55
2022-12-14T04:29:33.560Z,19.00
2022-12-14T04:32:15.508Z,18.43
2022-12-14T04:34:45.573Z,17.33
2022-12-14T04:37:16.884Z,18.65
2022-12-14T04:39:54.726Z,19.38
2022-12-14T04:42:28.239Z,18.58
2022-12-14T04:45:01.315Z,18.80
2022-12-14T04:47:33.888Z,18.52
2022-12-14T04:50:07.575Z,18.48
2022-12-14T04:52:43.583Z,18.85
2022-12-14T04:55:38.519Z,19.92
2022-12-14T04:58:13.346Z,18.58
2022-12-14T05:01:06.124Z,20.77
2022-12-14T05:03:41.260Z,20.15
2022-12-14T05:06:20.057Z,19.67
2022-12-14T05:09:16.285Z,19.98
2022-12-14T05:11:54.594Z,19.60
2022-12-14T05:14:34.966Z,19.33
2022-12-14T05:17:08.778Z,18.52
2022-12-14T05:19:37.659Z,19.83
2022-12-14T05:22:07.176Z,20.52
2022-12-14T05:24:35.109Z,19.88
2022-12-14T05:27:01.879Z,20.20
2022-12-14T05:29:28.711Z,21.02
2022-12-14T05:31:55.616Z,18.73
2022-12-14T05:34:23.768Z,20.23
2022-12-14T05:36:50.575Z,21.33
2022-12-14T05:39:17.722Z,21.67
2022-12-14T05:41:44.831Z,21.02
2022-12-14T05:44:11.816Z,21.58
2022-12-14T05:46:38.491Z,22.08
2022-12-14T05:49:05.355Z,23.25
2022-12-14T05:51:32.304Z,21.52
2022-12-14T05:54:00.379Z,22.80
2022-12-14T05:56:27.174Z,23.23
2022-12-14T05:58:53.973Z,21.73
2022-12-14T06:01:20.992Z,23.02
2022-12-14T06:03:48.274Z,22.58
2022-12-14T06:06:16.730Z,21.80
2022-12-14T06:08:45.602Z,23.75
2022-12-14T06:11:19.270Z,23.38
2022-12-14T06:13:46.829Z,24.67
2022-12-14T06:16:15.381Z,24.73
2022-12-14T06:18:53.863Z,24.85
2022-12-14T06:21:22.932Z,25.27
2022-12-14T06:23:51.359Z,24.52
2022-12-14T06:26:18.790Z,25.00
2022-12-14T06:28:45.799Z,24.83
2022-12-14T06:31:20.822Z,25.48
2022-12-14T06:33:48.075Z,24.27
2022-12-14T06:36:22.293Z,27.02
2022-12-14T06:38:50.136Z,27.05
2022-12-14T06:41:19.410Z,25.67
2022-12-14T06:43:49.353Z,23.90
2022-12-14T06:46:19.557Z,23.60
2022-12-14T06:48:51.206Z,26.15
2022-12-14T06:51:18.102Z,24.42
2022-12-14T06:53:44.828Z,25.25
2022-12-14T06:56:17.684Z,25.63
2022-12-14T06:58:44.822Z,27.73
2022-12-14T07:01:24.377Z,26.65
2022-12-14T07:03:54.669Z,24.90
2022-12-14T07:06:25.601Z,24.00
2022-12-14T07:08:56.976Z,26.00
2022-12-14T07:11:24.743Z,25.13
2022-12-14T07:13:51.482Z,24.55
2022-12-14T07:16:22.995Z,25.67
2022-12-14T07:18:50.251Z,26.25
2022-12-14T07:21:19.021Z,23.73
2022-12-14T07:23:47.906Z,25.25
2022-12-14T07:26:23.995Z,25.85
2022-12-14T07:28:51.660Z,25.17
2022-12-14T07:31:26.568Z,24.23
2022-12-14T07:33:55.290Z,22.70
2022-12-14T07:36:23.515Z,24.52
2022-12-14T07:38:51.681Z,25.92
2022-12-14T07:41:23.091Z,25.45
2022-12-14T07:43:50.994Z,25.33
2022-12-14T07:46:22.198Z,26.95
2022-12-14T07:48:51.194Z,23.02
2022-12-14T07:51:20.745Z,23.80
2022-12-14T07:53:48.456Z,25.70
2022-12-14T07:56:17.991Z,22.25
2022-12-14T07:58:45.023Z,22.13
2022-12-14T08:01:29.898Z,24.50
2022-12-14T08:03:59.968Z,23.38
2022-12-14T08:06:28.697Z,24.95
2022-12-14T08:08:56.388Z,24.02
2022-12-14T08:11:24.220Z,25.60
2022-12-14T08:13:58.677Z,24.42
2022-12-14T08:16:26.145Z,25.35
2022-12-14T08:18:58.215Z,24.35
2022-12-14T08:21:25.898Z,25.15
2022-12-14T08:23:54.566Z,25.77
2022-12-14T08:26:22.783Z,25.27
2022-12-14T08:28:49.884Z,25.75
2022-12-14T08:31:19.146Z,25.13
2022-12-14T08:33:46.996Z,24.35
2022-12-14T08:36:16.655Z,24.55
2022-12-14T08:38:44.117Z,23.63
2022-12-14T08:41:13.558Z,25.70
2022-12-14T08:43:41.365Z,25.63
2022-12-14T08:46:09.476Z,24.38
2022-12-14T08:48:36.529Z,23.10
2022-12-14T08:51:09.253Z,23.50
2022-12-14T08:53:37.546Z,24.15
2022-12-14T08:56:10.661Z,23.52
2022-12-14T08:58:39.238Z,23.17
2022-12-14T09:01:08.965Z,22.73
2022-12-14T09:03:36.047Z,22.73
2022-12-14T09:06:07.756Z,24.42
2022-12-14T09:08:35.462Z,23.20
2022-12-14T09:11:03.335Z,22.73
2022-12-14T09:13:30.680Z,23.85
2022-12-14T09:16:03.151Z,22.30
2022-12-14T09:18:30.887Z,21.98
2022-12-14T09:20:58.470Z,22.05
2022-12-14T09:23:27.913Z,20.60
2022-12-14T09:26:11.188Z,21.08
2022-12-14T09:28:40.615Z,22.25
2022-12-14T09:31:15.441Z,20.77
2022-12-14T09:33:42.621Z,19.98
2022-12-14T09:36:16.637Z,19.92
2022-12-14T09:38:50.582Z,19.35
2022-12-14T09:41:36.139Z,20.30
2022-12-14T09:44:25.028Z,19.65
2022-12-14T09:46:54.371Z,20.83
2022-12-14T09:49:31.980Z,19.05
2022-12-14T09:52:02.033Z,20.45
2022-12-14T09:54:35.506Z,20.42
2022-12-14T09:59:42.696Z,19.33
2022-12-14T10:02:50.658Z,22.52
2022-12-14T10:05:48.595Z,18.48
2022-12-14T10:08:27.794Z,17.85
2022-12-14T10:11:06.242Z,20.20
2022-12-14T10:13:58.983Z,20.65
2022-12-14T10:17:03.103Z,19.92
2022-12-14T10:22:16.202Z,20.98
2022-12-14T10:24:44.518Z,20.60
2022-12-14T10:27:20.328Z,18.70
2022-12-14T10:29:58.060Z,19.38
2022-12-14T10:32:41.347Z,19.35
2022-12-14T10:35:19.963Z,18.00
2022-12-14T10:38:05.078Z,18.23
2022-12-14T10:40:34.920Z,17.83
2022-12-14T10:43:27.096Z,18.02
2022-12-14T10:46:01.734Z,16.95
2022-12-14T10:48:47.465Z,17.33
2022-12-14T10:51:38.789Z,16.83
2022-12-14T10:54:20.637Z,18.30
2022-12-14T10:56:50.420Z,17.40
2022-12-14T10:59:23.893Z,16.60
2022-12-14T11:02:05.813Z,17.77
2022-12-14T11:04:57.552Z,16.63
2022-12-14T11:07:39.131Z,16.63
2022-12-14T11:10:30.250Z,16.45
2022-12-14T11:13:04.231Z,15.80
2022-12-14T11:15:47.170Z,15.05
2022-12-14T11:18:19.877Z,17.60
2022-12-14T11:20:53.949Z,16.77
2022-12-14T11:23:25.722Z,16.75
2022-12-14T11:25:59.635Z,16.77
2022-12-14T11:28:50.311Z,16.30
2022-12-14T11:31:46.699Z,15.98
2022-12-14T11:34:39.494Z,16.48
2022-12-14T11:37:31.885Z,17.58
2022-12-14T11:40:05.534Z,16.13
2022-12-14T11:42:33.391Z,17.42
2022-12-14T11:45:26.628Z,16.50
2022-12-14T11:48:15.340Z,16.05
2022-12-14T11:50:44.760Z,15.93
2022-12-14T11:53:14.653Z,15.80
2022-12-14T11:55:56.106Z,15.68
2022-12-14T11:58:37.810Z,16.30
2022-12-14T12:01:26.368Z,18.17
2022-12-14T12:03:58.798Z,17.65
2022-12-14T12:06:28.383Z,17.50
2022-12-14T12:09:00.505Z,16.20
2022-12-14T12:11:34.924Z,16.45
2022-12-14T12:14:06.986Z,15.00
2022-12-14T12:16:35.644Z,16.05
2022-12-14T12:19:11.557Z,16.85
2022-12-14T12:21:41.779Z,15.95
2022-12-14T12:24:20.150Z,16.10
2022-12-14T12:27:00.371Z,16.02
2022-12-14T12:29:36.642Z,17.85
2022-12-14T12:32:18.751Z,17.25
2022-12-14T12:34:52.513Z,16.73
2022-12-14T12:37:31.365Z,18.02
2022-12-14T12:40:10.454Z,16.38
2022-12-14T12:42:42.038Z,16.67
2022-12-14T12:45:25.769Z,16.98
2022-12-14T12:48:30.337Z,14.27
2022-12-14T12:51:07.915Z,20.27
2022-12-14T12:53:39.797Z,17.42
2022-12-14T12:56:12.778Z,15.73
2022-12-14T12:58:40.811Z,17.83
2022-12-14T13:01:35.486Z,16.85
2022-12-14T13:04:10.527Z,18.33
2022-12-14T13:06:59.084Z,18.33
2022-12-14T13:09:44.405Z,17.50
2022-12-14T13:12:27.271Z,17.45
2022-12-14T13:14:57.240Z,17.38
2022-12-14T13:17:41.613Z,18.17
2022-12-14T13:20:24.518Z,17.35
2022-12-14T13:22:51.972Z,17.07
2022-12-14T13:25:27.261Z,17.60
2022-12-14T13:28:21.292Z,17.55
2022-12-14T13:31:16.881Z,17.80
2022-12-14T13:33:58.888Z,17.38
2022-12-14T13:36:37.045Z,16.70
2022-12-14T13:39:22.010Z,17.67
2022-12-14T13:42:09.717Z,17.98
2022-12-14T13:44:57.167Z,17.38
2022-12-14T13:47:35.125Z,16.55
2022-12-14T13:50:34.816Z,16.88
2022-12-14T13:53:01.121Z,16.95
2022-12-14T13:55:36.580Z,17.15
2022-12-14T13:58:34.081Z,16.48
2022-12-14T14:01:09.437Z,16.08
2022-12-14T14:03:36.492Z,17.10
2022-12-14T14:06:12.356Z,17.05
2022-12-14T14:08:50.818Z,16.42
2022-12-14T14:11:40.787Z,16.33
2022-12-14T14:14:25.553Z,16.73
2022-12-14T14:17:08.535Z,17.85
2022-12-14T14:19:41.076Z,16.58
2022-12-14T14:22:23.795Z,18.13
2022-12-14T14:25:09.099Z,17.05
2022-12-14T14:27:40.106Z,16.83
2022-12-14T14:30:28.400Z,15.23
2022-12-14T14:33:07.664Z,18.25
2022-12-14T14:35:42.456Z,16.45
2022-12-14T14:38:31.445Z,16.98
2022-12-14T14:41:18.255Z,15.02
2022-12-14T14:43:57.151Z,16.67
2022-12-14T14:46:34.099Z,15.02
2022-12-14T14:49:01.266Z,16.30
2022-12-14T14:51:30.861Z,16.98
2022-12-14T14:54:37.689Z,16.35
2022-12-14T14:57:03.124Z,17.25
2022-12-14T14:59:40.339Z,17.58
2022-12-14T15:02:32.732Z,16.67
2022-12-14T15:05:24.836Z,16.50
2022-12-14T15:07:48.574Z,16.48
2022-12-14T15:10:30.314Z,16.30
2022-12-14T15:13:23.562Z,15.95
2022-12-14T15:15:53.261Z,16.67
2022-12-14T15:18:20.270Z,16.38
2022-12-14T15:21:07.615Z,16.88
2022-12-14T15:23:43.805Z,17.08
2022-12-14T15:26:21.474Z,16.55
2022-12-14T15:28:54.134Z,17.25
2022-12-14T15:31:30.743Z,20.15
2022-12-14T15:33:58.462Z,20.65
2022-12-14T15:36:30.626Z,21.98
2022-12-14T15:38:58.913Z,21.08
2022-12-14T15:41:29.195Z,19.95
2022-12-14T15:43:59.989Z,19.83
2022-12-14T15:46:33.556Z,20.70
2022-12-14T15:49:03.907Z,21.27
2022-12-14T15:51:38.216Z,20.85
2022-12-14T15:54:07.463Z,20.42
2022-12-14T15:56:36.149Z,21.75
2022-12-14T15:59:07.320Z,20.85
2022-12-14T16:01:39.959Z,20.73
2022-12-14T16:04:19.922Z,20.83
2022-12-14T16:06:56.956Z,21.25
2022-12-14T16:09:28.654Z,20.52
2022-12-14T16:12:05.358Z,18.45
2022-12-14T16:14:54.367Z,18.27
2022-12-14T16:17:26.485Z,19.02
2022-12-14T16:20:03.851Z,25.50
2022-12-14T16:22:32.143Z,23.88
2022-12-14T16:25:21.724Z,24.02
2022-12-14T16:27:51.078Z,21.80
2022-12-14T16:30:24.494Z,21.83
2022-12-14T16:33:13.449Z,25.42
2022-12-14T16:35:40.420Z,23.02
2022-12-14T16:38:11.578Z,22.83
2022-12-14T16:40:41.983Z,22.25
2022-12-14T16:43:26.858Z,23.52
2022-12-14T16:46:05.578Z,23.60
2022-12-14T16:48:34.042Z,21.88
2022-12-14T16:51:32.694Z,21.52
2022-12-14T16:54:21.245Z,21.80
2022-12-14T16:56:49.730Z,22.58
2022-12-14T16:59:34.173Z,20.38
2022-12-14T17:02:01.285Z,19.40
2022-12-14T17:04:36.673Z,19.05
2022-12-14T17:07:04.413Z,18.30
2022-12-14T17:09:36.740Z,19.15
2022-12-14T17:12:13.569Z,18.98
2022-12-14T17:14:47.584Z,19.52
2022-12-14T17:17:38.131Z,19.75
2022-12-14T17:20:13.682Z,19.73
2022-12-14T17:22:41.644Z,20.10
2022-12-14T17:25:10.325Z,21.63
2022-12-14T17:27:37.039Z,20.08
2022-12-14T17:30:08.148Z,20.25
2022-12-14T17:32:35.083Z,19.02
2022-12-14T17:35:03.830Z,20.27
2022-12-14T17:37:36.419Z,19.73
2022-12-14T17:40:04.346Z,20.10
2022-12-14T17:42:31.413Z,19.75
2022-12-14T17:44:59.923Z,20.92
2022-12-14T17:47:26.853Z,21.83
2022-12-14T17:49:53.658Z,22.15
2022-12-14T17:52:32.217Z,24.40
2022-12-14T17:54:59.635Z,25.45
2022-12-14T17:57:27.177Z,24.27
2022-12-14T18:00:12.363Z,25.52
2022-12-14T18:02:40.087Z,23.13
2022-12-14T18:05:19.274Z,21.55
2022-12-14T18:07:46.125Z,22.95
2022-12-14T18:10:18.074Z,23.10
2022-12-14T18:12:45.178Z,21.50
2022-12-14T18:15:25.453Z,21.98
2022-12-14T18:17:52.308Z,25.50
2022-12-14T18:20:22.871Z,23.38
2022-12-14T18:22:50.430Z,26.90
2022-12-14T18:25:26.584Z,31.23
2022-12-14T18:27:53.330Z,25.42
2022-12-14T18:30:20.486Z,25.23
2022-12-14T18:32:47.480Z,25.48
2022-12-14T18:35:23.189Z,28.90
2022-12-14T18:37:51.130Z,28.73
2022-12-14T18:40:23.079Z,26.05
2022-12-14T18:42:49.994Z,25.05
2022-12-14T18:45:30.748Z,25.95
2022-12-14T18:47:59.118Z,25.35
2022-12-14T18:50:26.763Z,25.52
2022-12-14T18:52:55.587Z,24.50
2022-12-14T18:55:30.853Z,25.05
2022-12-14T18:58:00.720Z,22.23
2022-12-14T19:00:32.691Z,20.15
2022-12-14T19:03:03.146Z,21.38
2022-12-14T19:05:31.219Z,21.60
2022-12-14T19:08:00.569Z,18.98
2022-12-14T19:10:32.861Z,21.00
2022-12-14T19:12:59.683Z,21.52
2022-12-14T19:15:29.420Z,21.80
2022-12-14T19:17:56.611Z,22.77
2022-12-14T19:20:25.187Z,21.88
2022-12-14T19:22:52.028Z,19.95
2022-12-14T19:25:20.332Z,21.83
2022-12-14T19:30:34.950Z,21.33
2022-12-14T19:33:01.824Z,22.23
2022-12-14T19:35:28.732Z,20.38
2022-12-14T19:37:55.516Z,20.63
2022-12-14T19:40:22.313Z,20.75
2022-12-14T19:42:49.100Z,21.38
2022-12-14T19:45:16.188Z,19.65
2022-12-14T19:47:44.096Z,20.48
2022-12-14T19:50:15.230Z,21.17
2022-12-14T19:52:42.706Z,19.83
2022-12-14T19:55:10.959Z,19.83
2022-12-14T19:57:39.277Z,20.73
2022-12-14T20:00:10.635Z,20.48
2022-12-14T20:02:38.110Z,22.52
2022-12-14T20:05:06.220Z,22.10
2022-12-14T20:07:33.086Z,19.60
2022-12-14T20:09:59.991Z,19.92
2022-12-14T20:12:26.829Z,20.25
2022-12-14T20:14:53.495Z,22.80
2022-12-14T20:17:20.324Z,21.42
2022-12-14T20:19:47.121Z,21.38
2022-12-14T20:22:15.108Z,22.25
2022-12-14T20:24:42.807Z,21.40
2022-12-14T20:27:09.816Z,21.60
2022-12-14T20:29:37.885Z,21.65
2022-12-14T20:32:04.767Z,23.40
2022-12-14T20:34:33.212Z,19.83
2022-12-14T20:37:00.646Z,21.52
2022-12-14T20:39:27.388Z,21.15
2022-12-14T20:41:54.114Z,21.45
2022-12-14T20:44:20.856Z,21.05
2022-12-14T20:46:47.742Z,21.25
2022-12-14T20:49:19.720Z,21.38
2022-12-14T20:51:47.698Z,21.75
2022-12-14T20:54:18.060Z,21.13
2022-12-14T20:56:49.699Z,21.02
2022-12-14T20:59:16.841Z,21.50
2022-12-14T21:01:51.771Z,22.40
2022-12-14T21:04:22.116Z,20.88
2022-12-14T21:06:48.764Z,22.98
2022-12-14T21:09:15.536Z,20.45
2022-12-14T21:12:02.099Z,21.05
2022-12-14T21:14:34.465Z,22.58
2022-12-14T21:17:02.299Z,21.23
2022-12-14T21:19:29.118Z,20.10
2022-12-14T21:21:56.344Z,21.95
2022-12-14T21:25:00.521Z,22.52
2022-12-14T21:27:17.525Z,21.20
2022-12-14T21:29:44.920Z,21.83
2022-12-14T21:32:11.943Z,20.70
2022-12-14T21:34:41.879Z,21.42
2022-12-14T21:37:10.401Z,21.52
2022-12-14T21:39:37.190Z,21.85
2022-12-14T21:42:15.456Z,22.55
2022-12-14T21:44:45.002Z,23.63
2022-12-14T21:47:14.908Z,21.88
2022-12-14T21:49:43.265Z,22.60
2022-12-14T21:52:15.472Z,22.40
2022-12-14T21:54:42.985Z,22.40
2022-12-14T21:57:36.961Z,21.95
2022-12-14T22:02:41.586Z,22.42
2022-12-14T22:05:09.267Z,23.75
2022-12-14T22:07:36.015Z,22.70
2022-12-14T22:10:02.876Z,22.02
2022-12-14T22:12:29.724Z,22.40
2022-12-14T22:14:56.537Z,24.17
2022-12-14T22:17:23.255Z,22.83
2022-12-14T22:19:51.205Z,22.55
2022-12-14T22:22:17.931Z,22.98
2022-12-14T22:24:47.921Z,24.23
2022-12-14T22:27:15.071Z,22.15
2022-12-14T22:29:41.807Z,21.80
2022-12-14T22:32:10.982Z,23.42
2022-12-14T22:34:37.776Z,21.67
2022-12-14T22:37:04.521Z,23.20
2022-12-14T22:39:31.257Z,22.52
2022-12-14T22:41:57.976Z,23.77
2022-12-14T22:44:24.721Z,22.50
2022-12-14T22:46:51.536Z,21.95
2022-12-14T22:49:19.587Z,23.50
2022-12-14T22:51:46.682Z,24.50
2022-12-14T22:54:24.880Z,22.55
2022-12-14T22:57:09.720Z,22.13
2022-12-14T22:59:43.628Z,22.63
2022-12-14T23:02:10.510Z,22.13
2022-12-14T23:04:38.083Z,22.92
2022-12-14T23:07:05.532Z,23.10
2022-12-14T23:09:50.755Z,23.15
2022-12-14T23:12:36.091Z,23.67
2022-12-14T23:15:21.305Z,23.60
2022-12-14T23:18:06.831Z,23.98
2022-12-14T23:20:52.352Z,22.08
2022-12-14T23:23:37.443Z,22.80
2022-12-14T23:26:23.649Z,21.67
2022-12-14T23:29:08.909Z,22.90
2022-12-14T23:31:54.131Z,23.65
2022-12-14T23:34:39.630Z,22.95
2022-12-14T23:37:25.020Z,22.40
2022-12-14T23:40:10.459Z,23.90
2022-12-14T23:42:55.745Z,24.33
2022-12-14T23:45:41.060Z,23.55
2022-12-14T23:48:26.335Z,22.88
2022-12-14T23:51:11.718Z,23.67
2022-12-14T23:53:57.032Z,23.63
2022-12-14T23:56:42.272Z,22.67
2022-12-14T23:59:31.995Z,22.73
